Time;durP1;ratioP1;P1;durP2;ratioP2;P2;SDS_P1;SDS_P2;PMS_P1;PMS_P2;Temp;Humidity;BMP_temperature;BMP_pressure;BME280_temperature;BME280_humidity;BME280_pressure;Samples;Min_cycle;Max_cycle;Signal;HPM_P1;HPM_P2
2022/10/01 00:01:55;;;;;;;;;5.00;5.00;;;;;13.66;88.89;100386.81;5064567;28;45740;-79
2022/10/01 00:04:21;;;;;;;;;4.00;4.00;;;;;13.71;89.65;100409.22;5072509;27;45232;-78
2022/10/01 00:06:46;;;;;;;;;4.33;4.33;;;;;13.66;89.96;100392.16;5061000;28;45440;-78
2022/10/01 00:09:12;;;;;;;;;7.33;6.33;;;;;13.68;90.48;100382.09;5061120;28;46693;-79
2022/10/01 00:11:37;;;;;;;;;5.00;5.00;;;;;13.67;90.33;100378.59;5059783;28;45338;-78
2022/10/01 00:14:03;;;;;;;;;5.33;5.33;;;;;13.78;90.67;100411.06;5060792;28;45433;-79
2022/10/01 00:16:30;;;;;;;;;4.00;4.00;;;;;13.78;90.97;100387.03;5060848;28;45328;-80
2022/10/01 00:18:56;;;;;;;;;2.33;2.33;;;;;13.75;90.57;100378.41;5060703;28;45672;-79
2022/10/01 00:21:24;;;;;;;;;4.00;4.00;;;;;13.82;90.60;100401.63;5060896;28;45283;-78
2022/10/01 00:24:03;;;;;;;;;4.00;4.00;;;;;13.82;90.70;100374.91;5060804;28;45639;-79
2022/10/01 00:26:31;;;;;;;;;7.00;5.00;;;;;13.87;91.37;100370.63;5060643;28;45345;-80
2022/10/01 00:28:59;;;;;;;;;5.00;5.00;;;;;13.91;91.31;100357.66;5058970;28;46451;-78
2022/10/01 00:31:25;;;;;;;;;4.33;4.33;;;;;13.91;91.42;100354.97;5060715;28;45381;-78
2022/10/01 00:33:52;;;;;;;;;4.00;4.00;;;;;13.82;91.33;100342.84;5060373;28;45236;-78
2022/10/01 00:36:18;;;;;;;;;4.00;4.00;;;;;13.94;91.61;100341.22;5060691;28;45298;-78
2022/10/01 00:38:44;;;;;;;;;4.00;4.00;;;;;13.89;91.86;100331.16;5060136;28;45311;-78
2022/10/01 00:41:10;;;;;;;;;3.00;3.00;;;;;13.88;92.26;100326.00;5060431;28;45437;-78
2022/10/01 00:43:42;;;;;;;;;6.00;4.00;;;;;13.98;92.78;100337.09;5058283;28;45238;-78
2022/10/01 00:46:22;;;;;;;;;5.00;5.00;;;;;13.98;92.96;100334.41;5060180;28;45678;-78
2022/10/01 00:49:00;;;;;;;;;5.00;5.00;;;;;13.96;93.26;100328.47;5060120;28;45571;-79
2022/10/01 00:51:33;;;;;;;;;5.00;5.00;;;;;13.98;92.92;100322.94;5058741;28;45827;-77
2022/10/01 00:54:08;;;;;;;;;4.00;4.00;;;;;13.92;93.07;100305.84;5060276;28;45370;-78
2022/10/01 00:56:34;;;;;;;;;3.00;3.00;;;;;13.95;93.14;100305.44;5060081;28;45476;-80
2022/10/01 00:59:00;;;;;;;;;5.00;5.00;;;;;13.93;93.49;100298.69;5060122;28;45404;-79
2022/10/01 01:01:26;;;;;;;;;4.00;3.67;;;;;14.00;93.63;100310.16;5060224;28;45311;-79
2022/10/01 01:03:51;;;;;;;;;4.33;3.67;;;;;14.04;93.43;100321.28;5074189;28;45398;-80
2022/10/01 01:06:17;;;;;;;;;5.67;4.00;;;;;13.97;94.67;100315.94;5059203;28;45895;-80
2022/10/01 01:08:42;;;;;;;;;3.00;2.67;;;;;14.01;94.66;100325.19;5060297;28;45414;-79
2022/10/01 01:11:23;;;;;;;;;3.00;2.33;;;;;14.07;94.77;100339.56;5060213;28;45585;-80
2022/10/01 01:13:55;;;;;;;;;3.00;3.00;;;;;14.00;94.62;100321.69;5060061;28;45268;-79
2022/10/01 01:16:39;;;;;;;;;3.33;3.33;;;;;14.02;94.39;100316.13;5060007;28;45327;-80
2022/10/01 01:19:23;;;;;;;;;2.33;2.00;;;;;14.04;94.65;100315.94;5059313;28;45239;-79
2022/10/01 01:21:55;;;;;;;;;3.00;3.00;;;;;14.11;95.15;100320.25;5059790;28;45348;-80
2022/10/01 01:24:39;;;;;;;;;4.00;3.00;;;;;14.10;95.53;100334.63;5060807;28;45302;-80
2022/10/01 01:27:15;;;;;;;;;3.00;3.00;;;;;14.06;100.00;100337.91;5079294;28;45457;-82
2022/10/01 01:29:53;;;;;;;;;4.33;3.00;;;;;13.94;99.52;100313.66;5060974;28;47546;-82
2022/10/01 01:32:27;;;;;;;;;2.33;2.33;;;;;13.95;99.80;100326.81;5047153;28;45485;-81
2022/10/01 01:34:56;;;;;;;;;2.00;2.00;;;;;14.01;98.95;100331.34;5068694;28;45323;-80
2022/10/01 01:37:26;;;;;;;;;3.00;3.00;;;;;14.01;98.65;100334.00;5046279;28;46130;-82
2022/10/01 01:39:55;;;;;;;;;2.33;1.00;;;;;14.03;97.81;100303.63;5061326;28;46022;-79
2022/10/01 01:42:36;;;;;;;;;3.00;3.00;;;;;14.06;97.55;100305.84;5058504;28;46044;-79
2022/10/01 01:45:07;;;;;;;;;2.00;2.00;;;;;14.14;97.40;100306.47;5058380;27;45410;-80
2022/10/01 01:47:34;;;;;;;;;3.00;3.00;;;;;14.10;97.48;100291.84;5059402;28;45192;-80
2022/10/01 01:50:01;;;;;;;;;3.00;3.00;;;;;14.17;97.58;100283.00;5065158;28;46984;-83
2022/10/01 01:52:28;;;;;;;;;6.00;3.00;;;;;14.13;97.79;100280.75;5066340;27;45374;-80
2022/10/01 01:54:56;;;;;;;;;3.00;2.00;;;;;14.22;97.63;100281.34;5058255;28;45307;-80
2022/10/01 01:57:22;;;;;;;;;2.67;2.67;;;;;14.27;97.53;100281.56;5059962;28;45247;-80
2022/10/01 01:59:47;;;;;;;;;5.00;3.00;;;;;14.27;97.79;100288.75;5059916;28;46394;-79
2022/10/01 02:02:18;;;;;;;;;3.33;1.67;;;;;14.23;97.81;100266.13;5064483;28;45402;-79
2022/10/01 02:04:55;;;;;;;;;2.00;2.00;;;;;14.34;97.86;100278.03;5082347;27;45490;-81
2022/10/01 02:07:43;;;;;;;;;1.00;1.00;;;;;14.37;97.81;100280.28;5054550;28;45987;-82
2022/10/01 02:10:23;;;;;;;;;2.33;2.33;;;;;14.40;97.89;100290.56;5054730;28;45266;-80
2022/10/01 02:13:10;;;;;;;;;1.33;1.33;;;;;14.43;98.05;100284.81;5059030;28;45381;-79
2022/10/01 02:15:54;;;;;;;;;1.00;1.00;;;;;14.45;97.87;100274.69;5059152;28;45267;-79
2022/10/01 02:18:32;;;;;;;;;0.67;0.67;;;;;14.47;97.86;100285.19;5066566;27;45299;-80
2022/10/01 02:21:27;;;;;;;;;2.33;1.00;;;;;14.49;98.10;100283.94;5059224;28;45248;-79
2022/10/01 02:23:58;;;;;;;;;1.00;1.00;;;;;14.50;98.35;100264.22;5058890;28;45342;-79
2022/10/01 02:26:26;;;;;;;;;2.00;2.00;;;;;14.47;98.50;100282.50;5059345;28;45392;-80
2022/10/01 02:28:56;;;;;;;;;1.00;1.00;;;;;14.44;98.56;100242.84;5058651;28;45468;-79
2022/10/01 02:31:22;;;;;;;;;1.33;1.33;;;;;14.51;98.26;100252.47;5058953;28;45533;-79
2022/10/01 02:33:52;;;;;;;;;2.00;0.00;;;;;14.49;98.14;100248.38;5058587;28;45716;-80
2022/10/01 02:36:20;;;;;;;;;2.00;2.00;;;;;14.50;97.98;100241.97;5058911;28;45343;-80
2022/10/01 02:38:49;;;;;;;;;1.33;1.33;;;;;14.53;97.95;100241.56;5058519;28;45363;-80
2022/10/01 02:41:19;;;;;;;;;1.00;1.00;;;;;14.55;97.92;100246.69;5058746;28;46230;-79
2022/10/01 02:43:52;;;;;;;;;0.33;0.33;;;;;14.54;97.80;100242.41;5058906;28;45569;-79
2022/10/01 02:46:50;;;;;;;;;1.00;1.00;;;;;14.63;97.61;100254.47;5058594;28;45319;-80
2022/10/01 02:49:15;;;;;;;;;2.00;2.00;;;;;14.57;97.93;100263.34;5041075;28;45425;-80
2022/10/01 02:51:52;;;;;;;;;2.00;1.33;;;;;14.60;97.95;100260.22;5057194;28;47384;-80
2022/10/01 02:54:25;;;;;;;;;1.00;1.00;;;;;14.62;97.76;100245.63;5058881;28;45320;-79
2022/10/01 02:59:34;;;;;;;;;1.00;1.00;;;;;14.66;98.60;100240.66;5058274;28;45341;-79
2022/10/01 03:02:00;;;;;;;;;0.33;0.33;;;;;14.66;98.35;100232.66;5062426;28;46215;-80
2022/10/01 03:04:25;;;;;;;;;1.00;1.00;;;;;14.67;98.44;100212.91;5066911;28;46040;-80
2022/10/01 03:06:50;;;;;;;;;0.00;0.00;;;;;14.67;98.60;100196.88;5057703;28;45378;-79
2022/10/01 03:09:16;;;;;;;;;0.00;0.00;;;;;14.69;98.69;100208.16;5062056;28;45268;-81
2022/10/01 03:11:42;;;;;;;;;0.00;0.00;;;;;14.71;98.55;100189.22;5060543;28;46885;-78
2022/10/01 03:14:09;;;;;;;;;1.67;0.00;;;;;14.73;98.76;100195.97;5061893;27;45283;-80
2022/10/01 03:16:34;;;;;;;;;3.00;1.00;;;;;14.79;98.91;100197.03;5062003;28;45307;-78
2022/10/01 03:18:59;;;;;;;;;0.00;0.00;;;;;14.76;98.66;100192.06;5059849;28;47191;-78
2022/10/01 03:21:25;;;;;;;;;1.00;1.00;;;;;14.77;98.93;100191.03;5060251;28;48249;-79
2022/10/01 03:23:51;;;;;;;;;0.00;0.00;;;;;14.87;99.00;100195.91;5061537;28;45362;-79
2022/10/01 03:26:16;;;;;;;;;0.00;0.00;;;;;14.76;98.98;100170.69;5062031;28;45688;-79
2022/10/01 03:28:41;;;;;;;;;0.33;0.33;;;;;14.85;99.39;100198.00;5060278;28;45932;-81
2022/10/01 03:31:08;;;;;;;;;1.00;0.00;;;;;14.82;99.04;100195.75;5060209;28;47361;-83
2022/10/01 03:33:34;;;;;;;;;0.00;0.00;;;;;14.92;99.56;100197.94;5060204;28;45189;-80
2022/10/01 03:36:00;;;;;;;;;1.00;0.00;;;;;14.87;99.47;100187.91;5061656;28;45296;-79
2022/10/01 03:38:26;;;;;;;;;0.00;0.00;;;;;14.88;99.12;100193.03;5060089;28;47045;-81
2022/10/01 03:40:51;;;;;;;;;0.00;0.00;;;;;14.94;99.28;100206.59;5060113;28;47169;-84
2022/10/01 03:43:16;;;;;;;;;1.00;0.00;;;;;14.96;99.17;100202.66;5060318;28;45323;-82
2022/10/01 03:45:42;;;;;;;;;0.00;0.00;;;;;14.94;99.40;100202.06;5060423;28;45390;-82
2022/10/01 03:48:07;;;;;;;;;0.00;0.00;;;;;14.98;99.00;100200.59;5059971;28;45811;-82
2022/10/01 03:50:32;;;;;;;;;0.67;0.00;;;;;15.04;99.12;100195.41;5048707;28;48070;-81
2022/10/01 03:52:58;;;;;;;;;0.00;0.00;;;;;15.02;98.86;100191.09;5071251;27;45350;-82
2022/10/01 03:55:24;;;;;;;;;0.00;0.00;;;;;15.11;99.12;100196.16;5051491;28;45311;-82
2022/10/01 03:57:50;;;;;;;;;0.00;0.00;;;;;15.06;98.94;100188.81;5060062;28;46092;-82
2022/10/01 04:00:17;;;;;;;;;0.00;0.00;;;;;15.08;99.15;100169.88;5077191;27;48000;-83
2022/10/01 04:02:42;;;;;;;;;0.00;0.00;;;;;15.18;99.48;100201.47;5049739;28;45550;-80
2022/10/01 04:05:08;;;;;;;;;0.00;0.00;;;;;15.12;99.64;100197.81;5055853;28;45299;-81
2022/10/01 04:07:33;;;;;;;;;1.00;0.33;;;;;15.18;99.86;100218.38;5051844;28;47064;-81
2022/10/01 04:09:58;;;;;;;;;0.00;0.00;;;;;15.17;99.78;100208.69;5055416;28;45604;-82
2022/10/01 04:12:24;;;;;;;;;0.00;0.00;;;;;15.17;99.87;100211.34;5047463;28;45316;-81
2022/10/01 04:14:50;;;;;;;;;0.00;0.00;;;;;15.15;100.00;100214.25;5061315;28;45688;-81
2022/10/01 04:17:15;;;;;;;;;0.00;0.00;;;;;15.19;100.00;100220.00;5059511;28;46206;-79
2022/10/01 04:19:40;;;;;;;;;0.00;0.00;;;;;15.26;100.00;100215.41;5058046;28;47429;-82
2022/10/01 04:22:06;;;;;;;;;0.00;0.00;;;;;15.31;100.00;100216.59;5059528;28;45335;-81
2022/10/01 04:24:31;;;;;;;;;0.00;0.00;;;;;15.22;100.00;100213.38;5061446;28;45224;-81
2022/10/01 04:26:57;;;;;;;;;0.00;0.00;;;;;15.21;100.00;100207.22;5060940;28;45494;-80
2022/10/01 04:29:22;;;;;;;;;0.00;0.00;;;;;15.27;100.00;100222.38;5061106;28;45596;-80
2022/10/01 04:31:47;;;;;;;;;0.00;0.00;;;;;15.29;100.00;100230.19;5060095;28;45403;-80
2022/10/01 04:34:13;;;;;;;;;0.00;0.00;;;;;15.40;100.00;100250.09;5061524;28;45256;-79
2022/10/01 04:36:38;;;;;;;;;0.00;0.00;;;;;15.39;100.00;100253.81;5060343;28;45995;-79
2022/10/01 04:39:04;;;;;;;;;0.00;0.00;;;;;15.45;100.00;100261.00;5062509;28;45457;-80
2022/10/01 04:41:30;;;;;;;;;1.00;0.00;;;;;15.36;100.00;100246.22;5060024;28;45380;-81
2022/10/01 04:43:57;;;;;;;;;0.00;0.00;;;;;15.46;100.00;100253.75;5061915;28;45299;-80
2022/10/01 04:46:23;;;;;;;;;0.00;0.00;;;;;15.48;100.00;100262.41;5061962;28;45441;-81
2022/10/01 04:48:49;;;;;;;;;0.00;0.00;;;;;15.47;100.00;100264.25;5063025;28;46675;-84
2022/10/01 04:51:14;;;;;;;;;0.00;0.00;;;;;15.46;100.00;100261.78;5066866;28;45261;-78
2022/10/01 04:53:40;;;;;;;;;0.00;0.00;;;;;15.50;100.00;100274.53;5073880;27;45567;-80
2022/10/01 04:56:05;;;;;;;;;0.00;0.00;;;;;15.53;100.00;100276.78;5074783;28;46177;-80
2022/10/01 04:58:31;;;;;;;;;0.00;0.00;;;;;15.58;100.00;100281.47;5061333;28;46149;-80
2022/10/01 05:00:57;;;;;;;;;1.33;1.33;;;;;15.57;100.00;100279.84;5060634;28;45239;-80
2022/10/01 05:03:22;;;;;;;;;0.00;0.00;;;;;15.60;100.00;100275.91;5075696;28;45430;-80
2022/10/01 05:05:47;;;;;;;;;0.00;0.00;;;;;15.64;100.00;100285.97;5059905;28;46161;-79
2022/10/01 05:08:12;;;;;;;;;0.00;0.00;;;;;15.73;100.00;100289.19;5061247;28;45360;-81
2022/10/01 05:10:38;;;;;;;;;0.00;0.00;;;;;15.70;100.00;100294.16;5061894;28;45277;-80
2022/10/01 05:13:03;;;;;;;;;0.00;0.00;;;;;15.69;100.00;100293.34;5061172;28;45236;-80
2022/10/01 05:15:29;;;;;;;;;1.67;0.00;;;;;15.73;100.00;100307.94;5058987;28;45543;-79
2022/10/01 05:17:55;;;;;;;;;0.00;0.00;;;;;15.75;100.00;100303.16;5068582;28;46347;-80
2022/10/01 05:20:26;;;;;;;;;0.00;0.00;;;;;15.85;100.00;100320.59;5060513;28;45200;-80
2022/10/01 05:22:53;;;;;;;;;1.00;0.00;;;;;15.85;100.00;100320.59;5053926;28;45625;-80
2022/10/01 05:25:19;;;;;;;;;0.00;0.00;;;;;15.82;100.00;100316.50;5039032;28;45504;-80
2022/10/01 05:27:45;;;;;;;;;0.00;0.00;;;;;15.88;100.00;100330.88;5045702;28;45426;-79
2022/10/01 05:30:12;;;;;;;;;1.00;1.00;;;;;15.90;100.00;100336.84;5059701;28;45193;-80
2022/10/01 05:32:38;;;;;;;;;0.00;0.00;;;;;15.86;100.00;100341.03;5060365;28;45338;-79
2022/10/01 05:35:05;;;;;;;;;0.00;0.00;;;;;15.83;100.00;100328.06;5058351;28;46116;-79
2022/10/01 05:37:31;;;;;;;;;0.00;0.00;;;;;15.84;100.00;100333.19;5059633;28;45367;-79
2022/10/01 05:39:56;;;;;;;;;0.00;0.00;;;;;15.88;100.00;100333.56;5059689;28;45553;-79
2022/10/01 05:42:22;;;;;;;;;0.00;0.00;;;;;15.89;100.00;100329.84;5059789;28;45286;-79
2022/10/01 05:44:48;;;;;;;;;0.00;0.00;;;;;15.87;100.00;100331.94;5058645;28;46984;-78
2022/10/01 05:47:15;;;;;;;;;0.00;0.00;;;;;15.93;100.00;100351.66;5054317;28;45362;-80
2022/10/01 05:49:43;;;;;;;;;0.00;0.00;;;;;15.89;100.00;100346.75;5053003;28;45365;-79
2022/10/01 05:52:13;;;;;;;;;0.67;0.67;;;;;15.97;100.00;100352.91;5060294;28;45331;-79
2022/10/01 05:54:39;;;;;;;;;0.00;0.00;;;;;15.98;100.00;100352.69;5059504;28;45298;-80
2022/10/01 05:57:06;;;;;;;;;0.00;0.00;;;;;15.96;100.00;100333.34;5052815;28;45312;-79
2022/10/01 05:59:32;;;;;;;;;0.00;0.00;;;;;15.95;100.00;100369.16;5059967;28;45313;-82
2022/10/01 06:01:57;;;;;;;;;0.00;0.00;;;;;15.89;100.00;100365.50;5094706;27;45226;-81
2022/10/01 06:04:23;;;;;;;;;0.00;0.00;;;;;15.96;100.00;100375.34;5071448;27;45214;-80
2022/10/01 06:06:48;;;;;;;;;0.00;0.00;;;;;15.96;100.00;100370.00;5061316;28;46062;-81
2022/10/01 06:09:14;;;;;;;;;0.00;0.00;;;;;16.00;100.00;100382.75;5073825;27;45351;-79
2022/10/01 06:11:42;;;;;;;;;0.00;0.00;;;;;16.01;100.00;100381.72;5060272;28;45299;-83
2022/10/01 06:14:07;;;;;;;;;0.00;0.00;;;;;16.05;100.00;100387.47;5060541;28;46530;-84
2022/10/01 06:16:33;;;;;;;;;0.00;0.00;;;;;16.00;100.00;100384.63;5063668;28;46319;-83
2022/10/01 06:18:58;;;;;;;;;0.00;0.00;;;;;16.06;100.00;100399.81;5060247;28;45315;-82
2022/10/01 06:21:24;;;;;;;;;0.00;0.00;;;;;15.95;100.00;100387.91;5049650;28;45342;-82
2022/10/01 06:23:50;;;;;;;;;0.00;0.00;;;;;16.10;100.00;100406.38;5040261;28;45231;-82
2022/10/01 06:26:16;;;;;;;;;0.00;0.00;;;;;16.05;100.00;100394.69;5059127;28;45419;-82
2022/10/01 06:28:41;;;;;;;;;0.00;0.00;;;;;16.06;100.00;100394.47;5057881;28;45537;-81
2022/10/01 06:31:07;;;;;;;;;0.00;0.00;;;;;16.16;100.00;100410.03;5059055;28;45205;-82
2022/10/01 06:33:32;;;;;;;;;0.00;0.00;;;;;16.17;100.00;100411.69;5059068;28;45891;-82
2022/10/01 06:35:58;;;;;;;;;0.00;0.00;;;;;16.27;100.00;100424.59;5076016;28;47199;-84
2022/10/01 06:38:25;;;;;;;;;0.00;0.00;;;;;16.23;100.00;100418.88;5085798;27;45222;-86
2022/10/01 06:40:55;;;;;;;;;0.00;0.00;;;;;16.20;100.00;100408.59;5058238;28;45371;-86
2022/10/01 06:43:22;;;;;;;;;0.00;0.00;;;;;16.24;100.00;100417.81;5061155;28;46084;-78
2022/10/01 06:45:47;;;;;;;;;1.00;0.00;;;;;16.28;100.00;100420.88;5060622;28;46111;-81
2022/10/01 06:48:15;;;;;;;;;0.00;0.00;;;;;16.37;100.00;100437.53;5062433;28;45248;-81
2022/10/01 06:50:42;;;;;;;;;0.00;0.00;;;;;16.37;100.00;100416.88;5061218;28;45334;-77
2022/10/01 06:53:09;;;;;;;;;0.00;0.00;;;;;16.41;100.00;100415.38;5061883;28;45402;-76
2022/10/01 06:55:35;;;;;;;;;0.00;0.00;;;;;16.50;100.00;100425.84;5062166;28;46323;-77
2022/10/01 06:58:05;;;;;;;;;0.00;0.00;;;;;16.58;100.00;100428.22;5061744;28;45328;-76
2022/10/01 07:00:33;;;;;;;;;0.00;0.00;;;;;16.61;99.63;100429.66;5062307;28;45457;-77
2022/10/01 07:03:00;;;;;;;;;1.00;1.00;;;;;16.62;99.75;100436.66;5073814;28;45495;-76
2022/10/01 07:05:26;;;;;;;;;0.00;0.00;;;;;16.56;99.64;100418.75;5063191;27;45459;-77
2022/10/01 07:07:52;;;;;;;;;0.00;0.00;;;;;16.61;99.02;100432.34;5061598;28;45240;-77
2022/10/01 07:10:19;;;;;;;;;0.00;0.00;;;;;16.61;99.52;100443.88;5069594;28;45487;-77
2022/10/01 07:12:47;;;;;;;;;0.33;0.33;;;;;16.68;99.51;100451.88;5080010;27;46321;-77
2022/10/01 07:15:14;;;;;;;;;1.00;1.00;;;;;16.70;98.89;100460.50;5075935;27;45541;-81
2022/10/01 07:18:01;;;;;;;;;0.00;0.00;;;;;16.76;98.78;100482.97;5067427;28;45318;-82
2022/10/01 07:20:34;;;;;;;;;0.00;0.00;;;;;16.51;98.42;100448.94;5063553;28;45294;-83
2022/10/01 07:23:00;;;;;;;;;0.00;0.00;;;;;16.74;98.61;100480.50;5059588;28;45309;-82
2022/10/01 07:25:26;;;;;;;;;1.00;1.00;;;;;16.74;98.52;100468.94;5072898;28;46488;-79
2022/10/01 07:28:04;;;;;;;;;0.00;0.00;;;;;16.82;98.55;100500.84;5071209;28;45266;-80
2022/10/01 07:30:30;;;;;;;;;1.00;1.00;;;;;16.83;98.53;100505.19;5066767;28;45668;-79
2022/10/01 07:33:00;;;;;;;;;0.00;0.00;;;;;16.84;98.21;100505.97;5079990;27;45469;-78
2022/10/01 07:35:29;;;;;;;;;0.00;0.00;;;;;16.82;97.85;100505.41;5065611;27;45564;-78
2022/10/01 07:37:57;;;;;;;;;0.67;0.67;;;;;16.91;97.91;100517.47;5068004;27;45228;-78
2022/10/01 07:40:23;;;;;;;;;0.67;0.67;;;;;16.88;98.31;100502.63;5059760;27;45398;-78
2022/10/01 07:43:15;;;;;;;;;2.00;2.00;;;;;16.98;98.44;100506.69;5061054;28;45511;-80
2022/10/01 07:50:00;;;;;;;;;1.00;1.00;;;;;17.15;97.81;100512.31;5062257;28;45422;-77
2022/10/01 07:59:34;;;;;;;;;1.00;0.33;;;;;17.02;96.97;100495.28;5028686;28;45423;-79
2022/10/01 08:08:45;;;;;;;;;1.00;1.00;;;;;17.21;97.04;100522.13;5071539;28;45468;-81
2022/10/01 08:11:24;;;;;;;;;1.67;1.33;;;;;17.06;97.00;100484.09;5071330;27;46456;-80
2022/10/01 08:14:41;;;;;;;;;1.67;1.00;;;;;17.27;96.65;100515.06;5063464;28;45366;-79
2022/10/01 08:21:01;;;;;;;;;0.67;0.33;;;;;17.21;95.93;100505.22;5028555;28;45337;-81
2022/10/01 08:23:28;;;;;;;;;0.67;0.67;;;;;17.51;96.48;100563.56;5057100;28;45754;-79
2022/10/01 08:26:25;;;;;;;;;1.00;0.00;;;;;17.49;96.16;100553.03;5057762;28;45419;-79
2022/10/01 08:29:02;;;;;;;;;5.00;2.67;;;;;17.30;95.10;100517.28;5037072;28;45574;-81
2022/10/01 08:31:41;;;;;;;;;2.67;1.67;;;;;17.44;95.12;100538.63;5056066;28;45393;-80
2022/10/01 08:34:06;;;;;;;;;2.67;2.67;;;;;17.39;94.50;100534.75;5040895;28;46340;-81
2022/10/01 08:36:36;;;;;;;;;1.00;1.00;;;;;17.45;94.26;100541.06;5044955;27;45261;-79
2022/10/01 08:39:38;;;;;;;;;1.00;0.67;;;;;17.39;94.11;100531.25;5040865;28;45522;-78
2022/10/01 08:42:36;;;;;;;;;1.67;1.67;;;;;17.70;93.78;100572.41;5057402;28;46353;-79
2022/10/01 08:45:42;;;;;;;;;3.00;3.00;;;;;17.73;92.79;100576.50;5038031;28;47231;-77
2022/10/01 08:48:14;;;;;;;;;1.67;1.67;;;;;17.72;93.11;100580.25;5055113;28;45545;-78
2022/10/01 08:50:51;;;;;;;;;2.00;2.00;;;;;17.74;91.84;100586.19;5058961;28;45461;-78
2022/10/01 08:53:35;;;;;;;;;5.67;3.00;;;;;17.73;91.30;100590.78;5058544;28;45359;-76
2022/10/01 08:56:02;;;;;;;;;1.67;1.67;;;;;17.73;91.56;100582.72;5065313;28;47017;-77
2022/10/01 08:58:39;;;;;;;;;4.00;2.00;;;;;17.73;91.84;100592.63;5082851;27;45401;-78
2022/10/01 09:01:05;;;;;;;;;3.67;3.00;;;;;17.83;91.57;100606.34;5058835;28;45886;-78
2022/10/01 09:03:32;;;;;;;;;1.33;1.33;;;;;17.84;90.15;100607.19;5072100;28;45258;-79
2022/10/01 09:06:19;;;;;;;;;5.67;3.33;;;;;17.83;90.19;100597.47;5072649;27;46092;-78
2022/10/01 09:08:53;;;;;;;;;3.00;3.00;;;;;17.92;90.23;100609.56;5058199;28;45481;-79
2022/10/01 09:11:34;;;;;;;;;3.00;3.00;;;;;17.98;89.35;100611.34;5058404;28;45402;-78
2022/10/01 09:14:33;;;;;;;;;3.00;3.00;;;;;17.91;88.39;100607.91;5058144;28;46262;-79
2022/10/01 09:17:15;;;;;;;;;6.00;6.00;;;;;18.04;88.61;100634.63;5073262;28;46433;-79
2022/10/01 09:19:57;;;;;;;;;1.33;1.00;;;;;18.07;87.97;100627.97;5047024;28;45330;-77
2022/10/01 09:22:38;;;;;;;;;3.00;3.00;;;;;18.09;87.75;100633.13;5059855;28;45444;-77
2022/10/01 09:25:23;;;;;;;;;3.00;2.33;;;;;18.02;87.01;100631.34;5065326;28;46372;-77
2022/10/01 09:27:50;;;;;;;;;3.67;3.00;;;;;18.07;86.94;100649.47;5063788;28;45453;-79
2022/10/01 09:30:23;;;;;;;;;3.67;3.67;;;;;18.06;85.86;100645.16;5059673;28;45318;-79
2022/10/01 09:33:17;;;;;;;;;2.67;2.67;;;;;18.07;86.27;100654.88;5059308;28;45263;-78
2022/10/01 09:35:49;;;;;;;;;8.00;4.67;;;;;18.08;85.75;100653.00;5055130;28;45476;-79
2022/10/01 09:38:49;;;;;;;;;8.67;5.33;;;;;18.13;86.20;100666.59;5058883;28;45590;-77
2022/10/01 09:41:16;;;;;;;;;4.33;4.33;;;;;18.03;85.92;100653.69;5057698;28;45404;-77
2022/10/01 09:43:42;;;;;;;;;2.67;2.33;;;;;18.11;85.40;100655.28;5059710;28;45286;-78
2022/10/01 09:46:13;;;;;;;;;5.33;2.33;;;;;18.09;85.47;100655.47;5057742;28;45639;-77
2022/10/01 09:49:01;;;;;;;;;4.00;4.00;;;;;18.18;85.73;100669.44;5058970;28;46845;-77
2022/10/01 09:51:39;;;;;;;;;4.33;4.33;;;;;18.14;85.52;100666.38;5059196;28;45363;-77
2022/10/01 09:54:16;;;;;;;;;5.00;5.00;;;;;18.24;86.15;100679.31;5059371;28;45152;-78
2022/10/01 09:56:49;;;;;;;;;9.33;8.00;;;;;18.25;85.83;100664.78;5059036;28;45323;-77
2022/10/01 09:59:49;;;;;;;;;9.33;8.00;;;;;18.26;85.92;100679.09;5059277;28;45391;-77
2022/10/01 10:02:23;;;;;;;;;8.33;8.00;;;;;18.22;85.73;100675.19;5062841;28;45388;-77
2022/10/01 10:04:59;;;;;;;;;7.00;4.33;;;;;18.21;85.69;100676.22;5059786;27;45367;-76
2022/10/01 10:07:24;;;;;;;;;8.00;6.00;;;;;18.23;85.31;100685.72;5059197;28;45448;-75
2022/10/01 10:09:51;;;;;;;;;8.67;4.33;;;;;18.27;85.61;100689.63;5059012;28;45689;-77
2022/10/01 10:12:28;;;;;;;;;5.00;2.00;;;;;18.34;85.20;100692.19;5058870;28;45396;-78
2022/10/01 10:14:55;;;;;;;;;3.67;3.67;;;;;18.36;85.50;100694.66;5059206;28;45392;-78
2022/10/01 10:17:21;;;;;;;;;4.00;4.00;;;;;18.37;84.65;100693.59;5061341;28;45220;-78
2022/10/01 10:19:51;;;;;;;;;4.33;4.33;;;;;18.41;85.01;100679.47;5062665;28;45278;-77
2022/10/01 10:22:27;;;;;;;;;4.00;3.67;;;;;18.50;85.04;100687.25;5062299;28;45341;-78
2022/10/01 10:24:56;;;;;;;;;4.67;3.00;;;;;18.58;84.81;100683.41;5062639;28;45410;-77
2022/10/01 10:27:26;;;;;;;;;4.67;4.00;;;;;18.65;84.17;100701.06;5062355;28;45545;-78
2022/10/01 10:30:12;;;;;;;;;4.00;3.67;;;;;18.67;83.26;100692.78;5062584;28;46083;-78
2022/10/01 10:32:38;;;;;;;;;5.33;5.00;;;;;18.75;83.61;100695.16;5062150;28;45319;-81
2022/10/01 10:35:09;;;;;;;;;4.00;3.67;;;;;18.86;82.35;100712.38;5062730;28;45212;-78
2022/10/01 10:37:41;;;;;;;;;4.67;2.00;;;;;18.89;81.80;100705.72;5062130;28;45552;-78
2022/10/01 10:40:07;;;;;;;;;4.33;4.00;;;;;18.94;81.17;100695.06;5062505;28;46681;-77
2022/10/01 10:42:35;;;;;;;;;3.33;3.00;;;;;18.99;81.13;100705.97;5062061;28;45312;-78
2022/10/01 10:45:02;;;;;;;;;4.00;3.00;;;;;19.04;81.02;100710.66;5059516;28;45477;-80
2022/10/01 10:47:30;;;;;;;;;6.33;4.00;;;;;19.10;80.19;100707.06;5061544;28;45358;-79
2022/10/01 10:49:59;;;;;;;;;14.00;7.00;;;;;19.24;80.77;100718.44;5061887;28;46178;-82
2022/10/01 10:52:29;;;;;;;;;4.33;4.00;;;;;19.32;79.46;100711.06;5062469;28;45572;-82
2022/10/01 10:54:56;;;;;;;;;5.00;5.00;;;;;19.30;78.86;100717.50;5062842;28;45347;-82
2022/10/01 10:57:33;;;;;;;;;4.00;2.67;;;;;19.45;77.93;100726.19;5062224;28;45309;-79
2022/10/01 11:00:24;;;;;;;;;5.00;3.00;;;;;19.52;76.72;100730.38;5061752;28;46484;-79
2022/10/01 11:02:55;;;;;;;;;6.00;4.00;;;;;19.58;76.20;100733.22;5072528;28;45338;-76
2022/10/01 11:05:27;;;;;;;;;8.67;6.67;;;;;19.61;75.41;100730.03;5064265;27;45409;-80
2022/10/01 11:07:57;;;;;;;;;5.33;5.33;;;;;19.59;74.54;100719.50;5061669;28;45432;-78
2022/10/01 11:10:40;;;;;;;;;7.00;7.00;;;;;19.62;73.53;100739.75;5061653;28;45347;-77
2022/10/01 11:13:32;;;;;;;;;2.67;2.67;;;;;19.58;74.79;100717.03;5061788;28;45310;-76
2022/10/01 11:16:10;;;;;;;;;7.67;5.00;;;;;19.72;75.21;100740.00;5061575;28;45272;-80
2022/10/01 11:18:35;;;;;;;;;3.00;2.00;;;;;19.75;74.67;100755.69;5061256;28;45404;-78
2022/10/01 11:21:26;;;;;;;;;5.00;3.67;;;;;19.69;74.69;100740.47;5060561;28;48666;-79
2022/10/01 11:23:54;;;;;;;;;6.00;5.00;;;;;19.78;74.98;100755.22;5061707;28;45283;-76
2022/10/01 11:26:59;;;;;;;;;4.00;4.00;;;;;19.77;73.46;100768.94;5061784;28;45497;-76
2022/10/01 11:29:51;;;;;;;;;4.00;3.33;;;;;19.74;72.84;100755.94;5058556;28;45516;-81
2022/10/01 11:32:48;;;;;;;;;5.00;4.67;;;;;19.68;72.52;100769.31;5065408;28;46577;-78
2022/10/01 11:35:41;;;;;;;;;5.33;3.00;;;;;19.65;71.02;100766.25;5059942;27;45899;-76
2022/10/01 11:39:01;;;;;;;;;3.00;3.00;;;;;19.62;71.66;100761.34;5063157;28;45292;-76
2022/10/01 11:41:44;;;;;;;;;4.67;4.67;;;;;19.64;72.28;100759.22;5016491;28;45363;-75
2022/10/01 11:44:28;;;;;;;;;10.00;8.67;;;;;19.71;72.88;100751.84;5072927;28;47237;-76
2022/10/01 11:47:15;;;;;;;;;5.67;5.00;;;;;19.85;71.59;100765.91;5100492;27;45397;-75
2022/10/01 11:50:20;;;;;;;;;9.00;5.00;;;;;19.90;71.44;100776.78;5054429;28;45370;-79
2022/10/01 11:52:52;;;;;;;;;5.00;4.00;;;;;19.86;72.42;100761.31;5067272;28;46391;-76
2022/10/01 11:58:54;;;;;;;;;4.67;3.33;;;;;20.04;70.11;100768.47;5060628;28;45224;-77
2022/10/01 12:01:23;;;;;;;;;3.00;1.33;;;;;20.18;68.72;100785.22;5074803;28;45466;-76
2022/10/01 12:04:11;;;;;;;;;4.00;4.00;;;;;20.30;70.20;100788.72;5076967;28;45325;-76
2022/10/01 12:06:52;;;;;;;;;4.67;4.67;;;;;20.42;71.30;100777.88;5067659;28;45305;-76
2022/10/01 12:09:51;;;;;;;;;5.67;4.67;;;;;20.62;70.84;100783.94;5077277;28;45330;-76
2022/10/01 12:12:26;;;;;;;;;5.00;3.00;;;;;20.77;68.64;100778.81;5088540;27;45424;-74
2022/10/01 12:15:16;;;;;;;;;4.67;4.00;;;;;20.91;67.88;100783.94;5082184;28;46525;-75